createdAt,value
2022-12-31T00:01:43.478Z,-15.28
2022-12-31T00:04:46.582Z,-15.38
2022-12-31T00:07:49.750Z,-15.41
2022-12-31T00:10:52.842Z,-15.38
2022-12-31T00:13:56.598Z,-15.37
2022-12-31T00:16:59.766Z,-15.38
2022-12-31T00:20:02.829Z,-15.40
2022-12-31T00:23:05.897Z,-15.41
2022-12-31T00:26:17.537Z,-15.42
2022-12-31T00:29:20.783Z,-15.42
2022-12-31T00:32:24.024Z,-15.41
2022-12-31T00:35:27.641Z,-15.38
2022-12-31T00:38:30.650Z,-15.34
2022-12-31T00:41:34.167Z,-15.37
2022-12-31T00:44:37.255Z,-15.41
2022-12-31T00:47:40.340Z,-15.38
2022-12-31T00:50:43.434Z,-15.37
2022-12-31T00:53:47.531Z,-15.32
2022-12-31T00:56:50.343Z,-15.26
2022-12-31T00:59:53.398Z,-15.22
2022-12-31T01:02:56.725Z,-15.21
2022-12-31T01:06:00.544Z,-15.18
2022-12-31T01:09:04.295Z,-15.16
2022-12-31T01:12:07.583Z,-15.14
2022-12-31T01:15:11.104Z,-15.12
2022-12-31T01:18:14.521Z,-15.12
2022-12-31T01:21:19.064Z,-15.11
2022-12-31T01:24:22.867Z,-15.07
2022-12-31T01:27:25.991Z,-15.03
2022-12-31T01:30:29.218Z,-14.98
2022-12-31T01:33:32.384Z,-14.97
2022-12-31T01:36:37.159Z,-15.03
2022-12-31T01:39:40.353Z,-15.14
2022-12-31T01:42:43.687Z,-15.20
2022-12-31T01:45:55.161Z,-15.26
2022-12-31T01:49:10.831Z,-15.26
2022-12-31T01:52:16.138Z,-15.16
2022-12-31T01:55:24.907Z,-15.04
2022-12-31T01:58:32.139Z,-14.96
2022-12-31T02:01:38.392Z,-14.72
2022-12-31T02:04:41.716Z,-14.58
2022-12-31T02:07:46.142Z,-14.40
2022-12-31T02:10:49.295Z,-14.20
2022-12-31T02:13:58.344Z,-14.02
2022-12-31T02:17:07.774Z,-13.88
2022-12-31T02:20:35.624Z,-13.78
2022-12-31T02:24:22.030Z,-13.63
2022-12-31T02:27:40.110Z,-13.52
2022-12-31T02:30:48.870Z,-13.42
2022-12-31T02:34:07.119Z,-13.35
2022-12-31T02:37:14.461Z,-13.24
2022-12-31T02:40:21.988Z,-13.15
2022-12-31T02:43:26.677Z,-13.09
2022-12-31T02:46:42.802Z,-12.97
2022-12-31T02:50:13.315Z,-12.86
2022-12-31T02:53:25.216Z,-12.78
2022-12-31T02:56:37.364Z,-12.72
2022-12-31T03:00:11.333Z,-12.67
2022-12-31T03:03:14.786Z,-12.56
2022-12-31T03:06:17.961Z,-12.48
2022-12-31T03:09:21.118Z,-12.38
2022-12-31T03:12:48.709Z,-12.26
2022-12-31T03:15:52.042Z,-12.19
2022-12-31T03:19:13.382Z,-12.12
2022-12-31T03:22:28.463Z,-12.09
2022-12-31T03:25:41.083Z,-11.99
2022-12-31T03:28:48.316Z,-11.89
2022-12-31T03:31:51.478Z,-11.86
2022-12-31T03:34:54.857Z,-11.80
2022-12-31T03:37:58.554Z,-11.73
2022-12-31T03:41:01.678Z,-11.61
2022-12-31T03:44:04.946Z,-11.55
2022-12-31T03:47:08.059Z,-11.48
2022-12-31T03:50:13.273Z,-11.38
2022-12-31T03:53:16.468Z,-11.31
2022-12-31T03:56:19.561Z,-11.27
2022-12-31T03:59:22.849Z,-11.22
2022-12-31T04:02:28.830Z,-11.14
2022-12-31T04:05:34.390Z,-11.09
2022-12-31T04:08:37.755Z,-11.05
2022-12-31T04:11:40.924Z,-11.04
2022-12-31T04:14:44.040Z,-11.16
2022-12-31T04:17:47.709Z,-11.34
2022-12-31T04:20:50.776Z,-11.42
2022-12-31T04:23:53.866Z,-11.58
2022-12-31T04:26:59.642Z,-11.69
2022-12-31T04:30:07.833Z,-11.80
2022-12-31T04:33:10.961Z,-11.84
2022-12-31T04:36:14.005Z,-11.74
2022-12-31T04:39:17.958Z,-11.59
2022-12-31T04:42:21.242Z,-11.40
2022-12-31T04:45:24.607Z,-11.20
2022-12-31T04:48:27.926Z,-11.05
2022-12-31T04:51:32.314Z,-10.90
2022-12-31T04:54:35.084Z,-10.71
2022-12-31T04:57:38.133Z,-10.52
2022-12-31T05:00:41.206Z,-10.50
2022-12-31T05:03:44.400Z,-10.49
2022-12-31T05:06:47.533Z,-10.47
2022-12-31T05:09:50.812Z,-10.45
2022-12-31T05:12:54.000Z,-10.38
2022-12-31T05:15:57.211Z,-10.16
2022-12-31T05:19:00.439Z,-9.82
2022-12-31T05:22:22.028Z,-9.60
2022-12-31T05:25:25.213Z,-9.53
2022-12-31T05:28:28.343Z,-9.41
2022-12-31T05:31:31.635Z,-9.30
2022-12-31T05:34:34.771Z,-9.22
2022-12-31T05:37:38.396Z,-9.16
2022-12-31T05:40:41.629Z,-9.20
2022-12-31T05:43:44.712Z,-9.30
2022-12-31T05:46:48.003Z,-9.36
2022-12-31T05:49:52.314Z,-9.43
2022-12-31T05:52:55.429Z,-9.57
2022-12-31T05:55:58.676Z,-9.72
2022-12-31T05:59:01.858Z,-9.86
2022-12-31T06:02:05.571Z,-9.92
2022-12-31T06:05:11.036Z,-10.06
2022-12-31T06:08:14.151Z,-10.16
2022-12-31T06:11:17.233Z,-10.28
2022-12-31T06:14:20.254Z,-10.35
2022-12-31T06:17:23.532Z,-10.31
2022-12-31T06:20:26.786Z,-10.26
2022-12-31T06:23:29.893Z,-10.34
2022-12-31T06:26:32.975Z,-10.49
2022-12-31T06:29:36.200Z,-10.60
2022-12-31T06:32:41.295Z,-10.66
2022-12-31T06:35:44.465Z,-10.74
2022-12-31T06:38:47.496Z,-10.86
2022-12-31T06:41:50.681Z,-10.96
2022-12-31T06:44:53.753Z,-11.05
2022-12-31T06:47:56.872Z,-11.21
2022-12-31T06:51:11.865Z,-11.20
2022-12-31T06:54:18.247Z,-11.16
2022-12-31T06:57:21.566Z,-11.21
2022-12-31T07:00:24.927Z,-11.27
2022-12-31T07:03:55.686Z,-11.02
2022-12-31T07:07:22.265Z,-10.85
2022-12-31T07:10:40.337Z,-10.84
2022-12-31T07:13:52.486Z,-10.99
2022-12-31T07:17:41.748Z,-11.13
2022-12-31T07:20:45.323Z,-11.26
2022-12-31T07:23:48.646Z,-11.40
2022-12-31T07:26:57.456Z,-11.48
2022-12-31T07:30:05.335Z,-11.55
2022-12-31T07:33:49.299Z,-11.54
2022-12-31T07:36:58.635Z,-11.60
2022-12-31T07:40:20.128Z,-11.50
2022-12-31T07:43:37.417Z,-11.54
2022-12-31T07:47:02.037Z,-11.59
2022-12-31T07:50:05.498Z,-11.67
2022-12-31T07:53:10.084Z,-11.71
2022-12-31T07:56:14.566Z,-11.75
2022-12-31T07:59:38.087Z,-11.71
2022-12-31T08:02:56.196Z,-11.70
2022-12-31T08:06:39.584Z,-11.69
2022-12-31T08:09:59.308Z,-11.69
2022-12-31T08:13:06.140Z,-11.74
2022-12-31T08:16:12.559Z,-11.77
2022-12-31T08:19:30.475Z,-11.81
2022-12-31T08:22:53.391Z,-11.84
2022-12-31T08:26:28.922Z,-11.93
2022-12-31T08:29:43.229Z,-12.00
2022-12-31T08:33:07.885Z,-12.07
2022-12-31T08:36:51.977Z,-12.06
2022-12-31T08:40:11.900Z,-12.01
2022-12-31T08:44:05.407Z,-12.00
2022-12-31T08:47:38.640Z,-12.04
2022-12-31T08:50:42.277Z,-12.08
2022-12-31T08:53:45.755Z,-12.14
2022-12-31T08:57:03.770Z,-12.20
2022-12-31T09:00:20.162Z,-12.23
2022-12-31T09:04:07.855Z,-12.31
2022-12-31T09:07:12.624Z,-12.41
2022-12-31T09:10:21.376Z,-12.46
2022-12-31T09:13:51.887Z,-12.50
2022-12-31T09:17:21.330Z,-12.56
2022-12-31T09:20:42.730Z,-12.70
2022-12-31T09:23:47.377Z,-12.76
2022-12-31T09:27:10.427Z,-12.77
2022-12-31T09:30:16.356Z,-12.84
2022-12-31T09:33:35.915Z,-12.92
2022-12-31T09:36:54.622Z,-12.85
2022-12-31T09:40:03.148Z,-12.92
2022-12-31T09:43:39.676Z,-12.98
2022-12-31T09:47:12.022Z,-13.08
2022-12-31T09:50:42.693Z,-13.24
2022-12-31T09:54:10.162Z,-13.38
2022-12-31T09:57:26.439Z,-13.50
2022-12-31T10:01:02.414Z,-13.54
2022-12-31T10:04:05.626Z,-13.64
2022-12-31T10:07:20.626Z,-13.68
2022-12-31T10:10:31.177Z,-13.73
2022-12-31T10:13:47.303Z,-13.79
2022-12-31T10:16:59.284Z,-13.82
2022-12-31T10:20:20.670Z,-13.88
2022-12-31T10:23:42.212Z,-13.92
2022-12-31T10:26:57.721Z,-14.00
2022-12-31T10:30:20.581Z,-13.99
2022-12-31T10:33:43.218Z,-14.05
2022-12-31T10:37:02.719Z,-14.04
2022-12-31T10:40:30.745Z,-14.07
2022-12-31T10:43:45.507Z,-14.13
2022-12-31T10:47:25.456Z,-14.19
2022-12-31T10:50:45.251Z,-14.22
2022-12-31T10:53:51.278Z,-14.29
2022-12-31T10:57:10.346Z,-14.32
2022-12-31T11:00:18.297Z,-14.37
2022-12-31T11:03:42.919Z,-14.40
2022-12-31T11:07:24.424Z,-14.44
2022-12-31T11:10:43.549Z,-14.51
2022-12-31T11:14:24.419Z,-14.55
2022-12-31T11:17:46.139Z,-14.60
2022-12-31T11:21:40.938Z,-14.63
2022-12-31T11:24:44.387Z,-14.66
2022-12-31T11:28:14.887Z,-14.68
2022-12-31T11:31:24.056Z,-14.68
2022-12-31T11:34:32.986Z,-14.78
2022-12-31T11:37:50.092Z,-14.85
2022-12-31T11:41:05.589Z,-14.88
2022-12-31T11:44:20.606Z,-14.87
2022-12-31T11:47:33.117Z,-14.91
2022-12-31T11:51:05.172Z,-14.90
2022-12-31T11:54:23.240Z,-14.94
2022-12-31T11:57:36.351Z,-14.96
2022-12-31T12:00:40.988Z,-15.00
2022-12-31T12:03:44.981Z,-15.01
2022-12-31T12:06:48.194Z,-15.05
2022-12-31T12:09:54.180Z,-15.01
2022-12-31T12:12:59.461Z,-15.02
2022-12-31T12:16:06.877Z,-15.01
2022-12-31T12:19:19.010Z,-15.02
2022-12-31T12:22:27.244Z,-15.02
2022-12-31T12:25:42.195Z,-15.05
2022-12-31T12:28:47.355Z,-15.04
2022-12-31T12:32:06.807Z,-15.03
2022-12-31T12:35:18.062Z,-15.05
2022-12-31T12:38:23.841Z,-15.04
2022-12-31T12:41:28.364Z,-15.05
2022-12-31T12:44:32.698Z,-15.04
2022-12-31T12:47:36.442Z,-15.05
2022-12-31T12:50:44.325Z,-15.04
2022-12-31T12:54:19.398Z,-15.05
2022-12-31T12:57:27.726Z,-15.09
2022-12-31T13:01:03.248Z,-15.10
2022-12-31T13:04:47.667Z,-15.12
2022-12-31T13:08:03.014Z,-15.10
2022-12-31T13:11:18.321Z,-15.14
2022-12-31T13:14:58.403Z,-15.15
2022-12-31T13:18:17.203Z,-15.18
2022-12-31T13:21:42.246Z,-15.25
2022-12-31T13:24:53.418Z,-15.31
2022-12-31T13:28:05.103Z,-15.38
2022-12-31T13:31:13.386Z,-15.42
2022-12-31T13:34:27.973Z,-15.43
2022-12-31T13:37:41.507Z,-15.45
2022-12-31T13:40:55.039Z,-15.48
2022-12-31T13:44:32.908Z,-15.49
2022-12-31T13:47:50.381Z,-15.51
2022-12-31T13:51:02.810Z,-15.51
2022-12-31T13:54:17.846Z,-15.53
2022-12-31T13:58:02.635Z,-15.58
2022-12-31T14:01:33.505Z,-15.60
2022-12-31T14:05:23.031Z,-15.61
2022-12-31T14:08:26.608Z,-15.60
2022-12-31T14:12:02.128Z,-15.61
2022-12-31T14:15:26.378Z,-15.60
2022-12-31T14:18:49.010Z,-15.66
2022-12-31T14:22:35.043Z,-15.71
2022-12-31T14:25:52.797Z,-15.68
2022-12-31T14:29:19.663Z,-15.64
2022-12-31T14:32:31.901Z,-15.58
2022-12-31T14:35:53.341Z,-15.55
2022-12-31T14:38:56.364Z,-15.54
2022-12-31T14:42:08.627Z,-15.54
2022-12-31T14:45:21.048Z,-15.55
2022-12-31T14:48:42.270Z,-15.58
2022-12-31T14:51:45.582Z,-15.60
2022-12-31T14:55:03.097Z,-15.61
2022-12-31T14:58:30.546Z,-15.60
2022-12-31T15:01:34.454Z,-15.65
2022-12-31T15:04:47.035Z,-15.69
2022-12-31T15:07:50.434Z,-15.66
2022-12-31T15:11:02.655Z,-15.50
2022-12-31T15:14:24.459Z,-15.44
2022-12-31T15:17:53.500Z,-15.53
2022-12-31T15:21:25.367Z,-15.64
2022-12-31T15:24:31.443Z,-15.74
2022-12-31T15:27:35.970Z,-15.76
2022-12-31T15:30:48.220Z,-15.80
2022-12-31T15:34:04.277Z,-15.85
2022-12-31T15:37:30.288Z,-15.90
2022-12-31T15:40:48.173Z,-15.91
2022-12-31T15:43:59.102Z,-15.91
2022-12-31T15:47:30.017Z,-15.91
2022-12-31T15:50:38.169Z,-15.97
2022-12-31T15:53:44.280Z,-15.99
2022-12-31T15:56:49.801Z,-15.99
2022-12-31T15:59:59.734Z,-16.02
2022-12-31T16:03:03.473Z,-16.10
2022-12-31T16:06:13.242Z,-16.09
2022-12-31T16:09:26.347Z,-16.09
2022-12-31T16:12:44.632Z,-16.10
2022-12-31T16:15:54.820Z,-16.12
2022-12-31T16:18:58.881Z,-16.07
2022-12-31T16:22:03.551Z,-16.07
2022-12-31T16:28:33.443Z,-16.13
2022-12-31T16:31:36.640Z,-16.14
2022-12-31T16:34:39.794Z,-16.13
2022-12-31T16:37:42.917Z,-16.19
2022-12-31T16:41:04.456Z,-16.22
2022-12-31T16:44:25.943Z,-16.26
2022-12-31T16:47:37.388Z,-16.27
2022-12-31T16:50:46.180Z,-16.30
2022-12-31T16:53:50.194Z,-16.31
2022-12-31T16:56:53.305Z,-16.34
2022-12-31T17:00:02.145Z,-16.34
2022-12-31T17:03:16.071Z,-16.38
2022-12-31T17:06:21.590Z,-16.38
2022-12-31T17:09:37.164Z,-16.34
2022-12-31T17:13:25.463Z,-16.32
2022-12-31T17:16:11.323Z,-16.31
2022-12-31T17:19:37.445Z,-16.36
2022-12-31T17:22:45.310Z,-16.40
2022-12-31T17:25:48.453Z,-16.40
2022-12-31T17:28:54.594Z,-16.41
2022-12-31T17:32:26.577Z,-16.43
2022-12-31T17:35:35.813Z,-16.44
2022-12-31T17:38:38.973Z,-16.45
2022-12-31T17:41:46.767Z,-16.44
2022-12-31T17:44:50.119Z,-16.45
2022-12-31T17:47:54.482Z,-16.47
2022-12-31T17:51:01.339Z,-16.47
2022-12-31T17:54:13.085Z,-16.43
2022-12-31T17:57:25.294Z,-16.46
2022-12-31T18:00:28.900Z,-16.48
2022-12-31T18:03:32.202Z,-16.48
2022-12-31T18:06:35.376Z,-16.51
2022-12-31T18:09:38.448Z,-16.55
2022-12-31T18:12:42.646Z,-16.58
2022-12-31T18:15:46.153Z,-16.54
2022-12-31T18:18:49.299Z,-16.56
2022-12-31T18:21:52.531Z,-16.57
2022-12-31T18:24:55.710Z,-16.57
2022-12-31T18:27:59.110Z,-16.61
2022-12-31T18:31:02.307Z,-16.66
2022-12-31T18:34:05.683Z,-16.70
2022-12-31T18:37:19.501Z,-16.72
2022-12-31T18:40:24.789Z,-16.71
2022-12-31T18:43:27.870Z,-16.72
2022-12-31T18:46:31.120Z,-16.75
2022-12-31T18:49:34.173Z,-16.78
2022-12-31T18:52:37.386Z,-16.81
2022-12-31T18:55:43.751Z,-16.82
2022-12-31T18:58:47.652Z,-16.84
2022-12-31T19:01:50.612Z,-16.85
2022-12-31T19:04:53.870Z,-16.89
2022-12-31T19:07:57.203Z,-16.90
2022-12-31T19:11:00.427Z,-16.92
2022-12-31T19:14:04.155Z,-16.92
2022-12-31T19:20:08.749Z,-16.92
2022-12-31T19:23:20.959Z,-16.90
2022-12-31T19:26:24.199Z,-16.93
2022-12-31T19:29:28.879Z,-16.90
2022-12-31T19:32:31.986Z,-16.88
2022-12-31T19:35:35.064Z,-16.87
2022-12-31T19:38:38.207Z,-16.88
2022-12-31T19:41:44.065Z,-16.87
2022-12-31T19:44:47.247Z,-16.92
2022-12-31T19:47:50.959Z,-16.91
2022-12-31T19:50:55.478Z,-16.95
2022-12-31T19:53:58.563Z,-16.96
2022-12-31T19:57:01.736Z,-16.98
2022-12-31T20:00:06.049Z,-16.98
2022-12-31T20:03:15.925Z,-17.00
2022-12-31T20:06:20.093Z,-16.97
2022-12-31T20:09:22.883Z,-16.96
2022-12-31T20:12:26.258Z,-16.97
2022-12-31T20:15:29.372Z,-16.98
2022-12-31T20:18:32.450Z,-17.00
2022-12-31T20:21:35.507Z,-16.97
2022-12-31T20:24:38.661Z,-16.95
2022-12-31T20:27:41.790Z,-16.96
2022-12-31T20:30:44.898Z,-16.99
2022-12-31T20:33:48.141Z,-16.96
2022-12-31T20:36:51.416Z,-16.97
2022-12-31T20:39:54.476Z,-16.95
2022-12-31T20:42:57.547Z,-16.94
2022-12-31T20:46:01.089Z,-16.92
2022-12-31T20:49:05.555Z,-16.92
2022-12-31T20:52:08.821Z,-16.96
2022-12-31T20:55:17.638Z,-16.96
2022-12-31T20:58:21.499Z,-16.98
2022-12-31T21:01:32.127Z,-16.94
2022-12-31T21:04:49.372Z,-16.91
2022-12-31T21:07:53.001Z,-16.88
2022-12-31T21:10:56.271Z,-16.87
2022-12-31T21:14:00.002Z,-16.83
2022-12-31T21:17:03.055Z,-16.83
2022-12-31T21:20:06.713Z,-16.81
2022-12-31T21:23:10.404Z,-16.84
2022-12-31T21:26:16.261Z,-16.84
2022-12-31T21:29:19.412Z,-16.85
2022-12-31T21:32:22.718Z,-16.87
2022-12-31T21:35:45.861Z,-16.89
2022-12-31T21:38:49.017Z,-16.91
2022-12-31T21:41:52.311Z,-16.90
2022-12-31T21:44:55.470Z,-16.89
2022-12-31T21:48:20.565Z,-16.92
2022-12-31T21:51:23.927Z,-16.96
2022-12-31T21:54:45.563Z,-16.99
2022-12-31T22:01:41.782Z,-17.00
2022-12-31T22:05:05.871Z,-17.09
2022-12-31T22:08:10.920Z,-17.05
2022-12-31T22:11:15.550Z,-17.09
2022-12-31T22:14:18.681Z,-17.08
2022-12-31T22:17:21.824Z,-17.08
2022-12-31T22:20:27.596Z,-17.10
2022-12-31T22:23:32.605Z,-17.11
2022-12-31T22:26:35.722Z,-17.07
2022-12-31T22:29:38.842Z,-17.01
2022-12-31T22:32:41.942Z,-17.02
2022-12-31T22:35:44.946Z,-17.03
2022-12-31T22:38:49.525Z,-17.04
2022-12-31T22:41:52.695Z,-17.04
2022-12-31T22:44:55.876Z,-17.06
2022-12-31T22:47:58.988Z,-17.09
2022-12-31T22:51:02.329Z,-17.11
2022-12-31T22:54:05.494Z,-17.10
2022-12-31T22:57:08.670Z,-17.16
2022-12-31T23:00:14.747Z,-17.16
2022-12-31T23:03:18.331Z,-17.14
2022-12-31T23:06:23.431Z,-17.14
2022-12-31T23:09:44.931Z,-17.15
2022-12-31T23:12:48.051Z,-17.22
2022-12-31T23:16:09.487Z,-17.23
2022-12-31T23:19:31.328Z,-17.19
2022-12-31T23:22:53.028Z,-17.20
2022-12-31T23:26:01.768Z,-17.19
2022-12-31T23:29:04.814Z,-17.19
2022-12-31T23:32:08.318Z,-17.15
2022-12-31T23:35:11.547Z,-17.06
2022-12-31T23:38:17.424Z,-17.08
2022-12-31T23:41:21.647Z,-17.12
2022-12-31T23:44:24.740Z,-17.13
2022-12-31T23:47:27.826Z,-17.13
2022-12-31T23:50:31.368Z,-17.13
2022-12-31T23:53:34.589Z,-17.19
2022-12-31T23:56:37.910Z,-17.14
2022-12-31T23:59:40.978Z,-17.09
